sensor_id;sensor_type;location;lat;lon;timestamp;pressure;altitude;pressure_sealevel;temperature;humidity
54248;BME280;40161;39.768;2.722;2023-05-02T00:41:35;101447.63;;;16.81;75.49
54248;BME280;40161;39.768;2.722;2023-05-02T00:44:00;101438.50;;;16.77;75.55
54248;BME280;40161;39.768;2.722;2023-05-02T00:46:26;101438.50;;;16.81;76.06
54248;BME280;40161;39.768;2.722;2023-05-02T00:48:51;101426.22;;;16.82;75.26
54248;BME280;40161;39.768;2.722;2023-05-02T01:27:35;101394.22;;;16.01;78.65
54248;BME280;40161;39.768;2.722;2023-05-02T01:30:01;101370.00;;;15.83;79.50
54248;BME280;40161;39.768;2.722;2023-05-02T01:32:28;101374.06;;;16.04;78.86
54248;BME280;40161;39.768;2.722;2023-05-02T01:34:56;101355.09;;;16.09;77.77
54248;BME280;40161;39.768;2.722;2023-05-02T01:37:23;101372.50;;;16.10;77.16
54248;BME280;40161;39.768;2.722;2023-05-02T01:40:03;101370.28;;;15.68;80.86
54248;BME280;40161;39.768;2.722;2023-05-02T02:29:31;101349.53;;;15.43;81.51
54248;BME280;40161;39.768;2.722;2023-05-02T05:08:17;101324.56;;;15.33;81.94
54248;BME280;40161;39.768;2.722;2023-05-02T05:10:43;101331.00;;;15.48;81.74
54248;BME280;40161;39.768;2.722;2023-05-02T05:13:09;101324.69;;;15.51;81.33
54248;BME280;40161;39.768;2.722;2023-05-02T05:15:36;101337.31;;;15.48;81.29
54248;BME280;40161;39.768;2.722;2023-05-02T05:18:02;101340.91;;;15.01;85.00
54248;BME280;40161;39.768;2.722;2023-05-02T05:20:28;101320.41;;;15.05;84.66
54248;BME280;40161;39.768;2.722;2023-05-02T05:58:18;101358.09;;;15.79;82.54
54248;BME280;40161;39.768;2.722;2023-05-02T06:00:43;101374.78;;;15.90;82.18
54248;BME280;40161;39.768;2.722;2023-05-02T06:03:09;101352.19;;;15.81;82.57
54248;BME280;40161;39.768;2.722;2023-05-02T06:05:35;101347.91;;;15.90;81.90
54248;BME280;40161;39.768;2.722;2023-05-02T06:10:25;101372.94;;;16.16;81.29
54248;BME280;40161;39.768;2.722;2023-05-02T06:13:25;101381.66;;;16.21;81.76
54248;BME280;40161;39.768;2.722;2023-05-02T06:15:50;101369.72;;;16.06;82.21
54248;BME280;40161;39.768;2.722;2023-05-02T06:18:16;101358.59;;;15.99;82.33
54248;BME280;40161;39.768;2.722;2023-05-02T06:23:07;101358.25;;;16.04;83.02
54248;BME280;40161;39.768;2.722;2023-05-02T06:26:00;101374.56;;;16.31;82.24
54248;BME280;40161;39.768;2.722;2023-05-02T06:28:27;101361.94;;;16.33;81.83
54248;BME280;40161;39.768;2.722;2023-05-02T06:31:03;101364.38;;;16.53;80.81
54248;BME280;40161;39.768;2.722;2023-05-02T06:33:31;101354.88;;;16.61;80.52
54248;BME280;40161;39.768;2.722;2023-05-02T06:35:57;101354.53;;;16.70;79.74
54248;BME280;40161;39.768;2.722;2023-05-02T06:38:23;101351.00;;;16.76;79.43
54248;BME280;40161;39.768;2.722;2023-05-02T06:40:49;101350.22;;;16.79;78.93
54248;BME280;40161;39.768;2.722;2023-05-02T06:43:15;101355.00;;;16.90;79.37
54248;BME280;40161;39.768;2.722;2023-05-02T06:45:41;101343.50;;;16.84;79.73
54248;BME280;40161;39.768;2.722;2023-05-02T06:48:07;101358.56;;;16.97;79.92
54248;BME280;40161;39.768;2.722;2023-05-02T06:50:33;101353.03;;;17.04;79.88
54248;BME280;40161;39.768;2.722;2023-05-02T06:52:59;101362.53;;;17.11;79.81
54248;BME280;40161;39.768;2.722;2023-05-02T06:55:25;101314.19;;;16.83;79.67
54248;BME280;40161;39.768;2.722;2023-05-02T06:57:51;101324.09;;;16.91;79.81
54248;BME280;40161;39.768;2.722;2023-05-02T07:00:18;101367.28;;;17.24;80.19
54248;BME280;40161;39.768;2.722;2023-05-02T07:02:47;101372.44;;;17.29;80.56
54248;BME280;40161;39.768;2.722;2023-05-02T07:05:13;101359.34;;;17.30;79.66
54248;BME280;40161;39.768;2.722;2023-05-02T07:07:42;101343.91;;;17.25;79.40
54248;BME280;40161;39.768;2.722;2023-05-02T07:10:31;101370.06;;;17.46;79.45
54248;BME280;40161;39.768;2.722;2023-05-02T08:46:59;101391.81;;;19.89;67.97
54248;BME280;40161;39.768;2.722;2023-05-02T08:49:26;101400.97;;;19.86;68.87
54248;BME280;40161;39.768;2.722;2023-05-02T08:51:54;101390.31;;;19.78;68.77
54248;BME280;40161;39.768;2.722;2023-05-02T08:54:22;101393.06;;;19.81;68.16
54248;BME280;40161;39.768;2.722;2023-05-02T08:56:50;101401.72;;;19.90;66.51
54248;BME280;40161;39.768;2.722;2023-05-02T08:59:16;101407.22;;;19.98;65.70
54248;BME280;40161;39.768;2.722;2023-05-02T09:01:43;101355.38;;;19.73;65.28
54248;BME280;40161;39.768;2.722;2023-05-02T09:04:12;101413.34;;;20.20;66.58
54248;BME280;40161;39.768;2.722;2023-05-02T09:06:38;101361.53;;;19.91;65.29
54248;BME280;40161;39.768;2.722;2023-05-02T09:09:04;101407.19;;;20.35;65.70
54248;BME280;40161;39.768;2.722;2023-05-02T09:11:29;101408.22;;;20.49;63.84
54248;BME280;40161;39.768;2.722;2023-05-02T09:13:55;101414.38;;;20.67;63.14
54248;BME280;40161;39.768;2.722;2023-05-02T09:16:24;101405.13;;;20.74;66.32
54248;BME280;40161;39.768;2.722;2023-05-02T09:18:52;101415.81;;;20.79;63.29
54248;BME280;40161;39.768;2.722;2023-05-02T09:21:19;101389.03;;;20.58;61.64
54248;BME280;40161;39.768;2.722;2023-05-02T09:23:51;101399.78;;;20.86;60.73
54248;BME280;40161;39.768;2.722;2023-05-02T09:26:24;101395.88;;;20.80;61.34
54248;BME280;40161;39.768;2.722;2023-05-02T09:29:01;101407.97;;;21.24;61.72
54248;BME280;40161;39.768;2.722;2023-05-02T09:31:29;101403.50;;;21.03;63.37
54248;BME280;40161;39.768;2.722;2023-05-02T09:34:07;101398.03;;;20.96;61.46
54248;BME280;40161;39.768;2.722;2023-05-02T09:36:50;101408.75;;;21.25;61.25
54248;BME280;40161;39.768;2.722;2023-05-02T09:39:21;101396.94;;;20.90;62.09
54248;BME280;40161;39.768;2.722;2023-05-02T09:41:47;101385.22;;;20.99;62.67
54248;BME280;40161;39.768;2.722;2023-05-02T09:44:18;101392.81;;;20.98;62.98
54248;BME280;40161;39.768;2.722;2023-05-02T09:46:46;101416.78;;;20.96;63.07
54248;BME280;40161;39.768;2.722;2023-05-02T09:49:11;101421.03;;;21.04;62.83
54248;BME280;40161;39.768;2.722;2023-05-02T09:51:39;101410.66;;;21.04;62.53
54248;BME280;40161;39.768;2.722;2023-05-02T09:54:05;101414.22;;;21.05;63.56
54248;BME280;40161;39.768;2.722;2023-05-02T09:56:32;101417.41;;;21.07;65.61
54248;BME280;40161;39.768;2.722;2023-05-02T09:59:15;101418.19;;;20.80;67.19
54248;BME280;40161;39.768;2.722;2023-05-02T10:01:42;101410.34;;;20.72;67.98
54248;BME280;40161;39.768;2.722;2023-05-02T10:04:12;101423.59;;;20.91;67.24
54248;BME280;40161;39.768;2.722;2023-05-02T10:06:44;101424.38;;;20.92;67.14
54248;BME280;40161;39.768;2.722;2023-05-02T10:09:10;101417.34;;;20.83;68.44
54248;BME280;40161;39.768;2.722;2023-05-02T10:11:42;101423.47;;;20.71;70.45
54248;BME280;40161;39.768;2.722;2023-05-02T10:14:09;101424.50;;;20.84;70.63
54248;BME280;40161;39.768;2.722;2023-05-02T10:16:58;101425.47;;;20.71;70.62
54248;BME280;40161;39.768;2.722;2023-05-02T10:19:32;101403.59;;;20.69;70.83
54248;BME280;40161;39.768;2.722;2023-05-02T10:22:01;101415.00;;;20.82;70.95
54248;BME280;40161;39.768;2.722;2023-05-02T10:24:31;101405.69;;;20.89;71.43
54248;BME280;40161;39.768;2.722;2023-05-02T10:26:57;101398.44;;;20.95;73.60
54248;BME280;40161;39.768;2.722;2023-05-02T10:29:23;101402.78;;;20.99;71.04
54248;BME280;40161;39.768;2.722;2023-05-02T10:31:49;101409.31;;;21.13;70.14
54248;BME280;40161;39.768;2.722;2023-05-02T10:34:17;101423.03;;;21.30;69.58
54248;BME280;40161;39.768;2.722;2023-05-02T10:36:43;101425.56;;;21.48;69.07
54248;BME280;40161;39.768;2.722;2023-05-02T10:39:08;101423.88;;;21.27;68.58
54248;BME280;40161;39.768;2.722;2023-05-02T10:41:34;101415.16;;;21.49;67.52
54248;BME280;40161;39.768;2.722;2023-05-02T10:44:03;101405.63;;;21.46;66.53
54248;BME280;40161;39.768;2.722;2023-05-02T10:46:39;101391.19;;;21.51;66.16
54248;BME280;40161;39.768;2.722;2023-05-02T10:49:10;101366.97;;;21.45;65.19
54248;BME280;40161;39.768;2.722;2023-05-02T10:51:40;101393.00;;;21.62;64.62
54248;BME280;40161;39.768;2.722;2023-05-02T10:54:21;101400.81;;;21.70;64.49
54248;BME280;40161;39.768;2.722;2023-05-02T10:59:29;101371.34;;;21.46;64.66
54248;BME280;40161;39.768;2.722;2023-05-02T11:01:56;101378.06;;;21.72;64.06
54248;BME280;40161;39.768;2.722;2023-05-02T11:04:22;101375.13;;;21.79;63.52
54248;BME280;40161;39.768;2.722;2023-05-02T11:09:30;101371.72;;;21.68;63.17
54248;BME280;40161;39.768;2.722;2023-05-02T11:11:56;101378.91;;;21.69;63.59
54248;BME280;40161;39.768;2.722;2023-05-02T11:19:27;101383.59;;;21.75;59.68
54248;BME280;40161;39.768;2.722;2023-05-02T11:24:52;101347.28;;;21.75;60.03
54248;BME280;40161;39.768;2.722;2023-05-02T11:29:57;101340.69;;;21.86;57.71
54248;BME280;40161;39.768;2.722;2023-05-02T11:32:26;101335.31;;;21.95;58.05
54248;BME280;40161;39.768;2.722;2023-05-02T11:35:26;101346.94;;;22.13;57.95
54248;BME280;40161;39.768;2.722;2023-05-02T11:37:55;101350.31;;;22.24;56.95
54248;BME280;40161;39.768;2.722;2023-05-02T11:40:21;101341.97;;;22.41;56.36
54248;BME280;40161;39.768;2.722;2023-05-02T11:42:48;101334.94;;;22.33;55.81
54248;BME280;40161;39.768;2.722;2023-05-02T11:45:13;101310.56;;;22.33;55.79
54248;BME280;40161;39.768;2.722;2023-05-02T11:47:40;101345.41;;;22.28;56.72
54248;BME280;40161;39.768;2.722;2023-05-02T11:50:07;101340.28;;;22.27;56.96
54248;BME280;40161;39.768;2.722;2023-05-02T11:52:38;101345.63;;;22.38;57.27
54248;BME280;40161;39.768;2.722;2023-05-02T11:55:11;101310.53;;;22.17;57.25
54248;BME280;40161;39.768;2.722;2023-05-02T11:57:38;101335.03;;;22.65;53.90
54248;BME280;40161;39.768;2.722;2023-05-02T12:00:04;101278.94;;;22.00;53.45
54248;BME280;40161;39.768;2.722;2023-05-02T12:02:44;101323.97;;;22.42;54.45
54248;BME280;40161;39.768;2.722;2023-05-02T12:05:12;101338.16;;;22.67;53.34
54248;BME280;40161;39.768;2.722;2023-05-02T12:07:42;101323.75;;;22.69;53.23
54248;BME280;40161;39.768;2.722;2023-05-02T12:10:10;101339.13;;;22.77;52.30
54248;BME280;40161;39.768;2.722;2023-05-02T12:12:36;101315.09;;;22.63;52.23
54248;BME280;40161;39.768;2.722;2023-05-02T12:15:04;101337.19;;;22.94;51.39
54248;BME280;40161;39.768;2.722;2023-05-02T12:17:30;101327.63;;;23.08;51.74
54248;BME280;40161;39.768;2.722;2023-05-02T12:19:56;101285.38;;;22.69;50.96
54248;BME280;40161;39.768;2.722;2023-05-02T12:22:23;101336.81;;;22.92;50.28
54248;BME280;40161;39.768;2.722;2023-05-02T12:24:49;101315.47;;;22.82;50.49
54248;BME280;40161;39.768;2.722;2023-05-02T12:27:17;101330.00;;;22.93;50.48
54248;BME280;40161;39.768;2.722;2023-05-02T12:29:44;101303.66;;;22.90;48.97
54248;BME280;40161;39.768;2.722;2023-05-02T12:32:11;101338.06;;;23.07;47.99
54248;BME280;40161;39.768;2.722;2023-05-02T12:34:37;101328.78;;;23.27;48.15
54248;BME280;40161;39.768;2.722;2023-05-02T12:37:04;101338.28;;;23.29;47.22
54248;BME280;40161;39.768;2.722;2023-05-02T12:39:48;101324.75;;;23.11;48.10
54248;BME280;40161;39.768;2.722;2023-05-02T12:42:16;101349.69;;;23.06;48.50
54248;BME280;40161;39.768;2.722;2023-05-02T12:44:43;101338.66;;;22.98;48.62
54248;BME280;40161;39.768;2.722;2023-05-02T12:47:11;101334.56;;;23.19;48.03
54248;BME280;40161;39.768;2.722;2023-05-02T12:49:57;101305.41;;;23.17;48.54
54248;BME280;40161;39.768;2.722;2023-05-02T12:52:50;101342.63;;;23.46;47.20
54248;BME280;40161;39.768;2.722;2023-05-02T12:55:25;101329.97;;;23.26;47.17
54248;BME280;40161;39.768;2.722;2023-05-02T12:58:07;101337.28;;;23.07;48.80
54248;BME280;40161;39.768;2.722;2023-05-02T13:00:36;101343.38;;;23.02;50.76
54248;BME280;40161;39.768;2.722;2023-05-02T13:03:02;101338.88;;;22.71;50.05
54248;BME280;40161;39.768;2.722;2023-05-02T13:05:27;101322.75;;;22.43;52.68
54248;BME280;40161;39.768;2.722;2023-05-02T13:07:53;101317.63;;;22.58;52.31
54248;BME280;40161;39.768;2.722;2023-05-02T13:10:21;101332.91;;;22.53;52.76
54248;BME280;40161;39.768;2.722;2023-05-02T13:12:47;101340.94;;;22.51;51.66
54248;BME280;40161;39.768;2.722;2023-05-02T13:15:13;101308.50;;;22.37;50.67
54248;BME280;40161;39.768;2.722;2023-05-02T13:17:39;101325.78;;;22.68;49.85
54248;BME280;40161;39.768;2.722;2023-05-02T13:20:06;101345.00;;;22.83;47.79
54248;BME280;40161;39.768;2.722;2023-05-02T13:22:32;101336.97;;;22.68;49.04
54248;BME280;40161;39.768;2.722;2023-05-02T13:24:58;101304.78;;;22.24;49.78
54248;BME280;40161;39.768;2.722;2023-05-02T13:27:24;101345.22;;;22.56;48.81
54248;BME280;40161;39.768;2.722;2023-05-02T13:29:50;101345.81;;;22.47;49.44
54248;BME280;40161;39.768;2.722;2023-05-02T13:32:16;101316.06;;;22.20;48.66
54248;BME280;40161;39.768;2.722;2023-05-02T13:34:43;101345.25;;;22.36;48.77
54248;BME280;40161;39.768;2.722;2023-05-02T13:37:09;101349.66;;;22.37;48.86
54248;BME280;40161;39.768;2.722;2023-05-02T13:39:35;101347.00;;;22.66;46.95
54248;BME280;40161;39.768;2.722;2023-05-02T13:42:00;101332.75;;;22.77;46.95
54248;BME280;40161;39.768;2.722;2023-05-02T13:44:28;101333.97;;;22.59;48.17
54248;BME280;40161;39.768;2.722;2023-05-02T13:46:53;101328.34;;;22.43;48.37
54248;BME280;40161;39.768;2.722;2023-05-02T13:49:19;101306.97;;;22.33;48.69
54248;BME280;40161;39.768;2.722;2023-05-02T13:51:44;101317.00;;;22.66;44.25
54248;BME280;40161;39.768;2.722;2023-05-02T13:54:10;101289.50;;;22.65;46.79
54248;BME280;40161;39.768;2.722;2023-05-02T13:56:36;101279.13;;;22.29;47.93
54248;BME280;40161;39.768;2.722;2023-05-02T13:59:02;101294.69;;;22.30;47.94
54248;BME280;40161;39.768;2.722;2023-05-02T14:01:27;101320.31;;;22.45;47.58
54248;BME280;40161;39.768;2.722;2023-05-02T14:03:53;101313.81;;;22.32;46.59
54248;BME280;40161;39.768;2.722;2023-05-02T14:06:18;101318.81;;;22.40;47.34
54248;BME280;40161;39.768;2.722;2023-05-02T14:08:44;101304.28;;;22.29;47.44
54248;BME280;40161;39.768;2.722;2023-05-02T14:11:10;101297.47;;;22.30;46.39
54248;BME280;40161;39.768;2.722;2023-05-02T14:13:36;101310.66;;;22.30;46.77
54248;BME280;40161;39.768;2.722;2023-05-02T14:16:01;101303.16;;;22.26;45.61
54248;BME280;40161;39.768;2.722;2023-05-02T14:18:27;101318.09;;;22.36;45.45
54248;BME280;40161;39.768;2.722;2023-05-02T14:20:53;101306.28;;;22.28;45.92
54248;BME280;40161;39.768;2.722;2023-05-02T14:23:18;101298.97;;;22.35;46.03
54248;BME280;40161;39.768;2.722;2023-05-02T14:25:44;101299.38;;;22.33;45.80
54248;BME280;40161;39.768;2.722;2023-05-02T14:28:09;101292.31;;;22.28;45.88
54248;BME280;40161;39.768;2.722;2023-05-02T14:30:35;101289.88;;;22.31;46.03
54248;BME280;40161;39.768;2.722;2023-05-02T14:33:00;101281.94;;;22.45;45.07
54248;BME280;40161;39.768;2.722;2023-05-02T14:35:26;101287.78;;;22.35;45.68
54248;BME280;40161;39.768;2.722;2023-05-02T14:37:51;101274.31;;;22.30;45.55
54248;BME280;40161;39.768;2.722;2023-05-02T14:40:17;101269.53;;;22.30;43.41
54248;BME280;40161;39.768;2.722;2023-05-02T14:42:43;101286.75;;;22.45;45.09
54248;BME280;40161;39.768;2.722;2023-05-02T14:45:09;101281.00;;;22.52;43.36
54248;BME280;40161;39.768;2.722;2023-05-02T14:47:35;101274.69;;;22.48;43.65
54248;BME280;40161;39.768;2.722;2023-05-02T14:50:04;101290.16;;;23.34;42.23
54248;BME280;40161;39.768;2.722;2023-05-02T14:52:30;101267.56;;;22.96;43.99
54248;BME280;40161;39.768;2.722;2023-05-02T14:55:00;101280.84;;;22.75;44.54
54248;BME280;40161;39.768;2.722;2023-05-02T14:57:25;101288.53;;;22.71;44.99
54248;BME280;40161;39.768;2.722;2023-05-02T14:59:52;101291.41;;;23.33;38.75
54248;BME280;40161;39.768;2.722;2023-05-02T15:02:17;101293.56;;;23.42;39.86
54248;BME280;40161;39.768;2.722;2023-05-02T15:04:43;101304.25;;;23.47;41.12
54248;BME280;40161;39.768;2.722;2023-05-02T15:07:08;101300.78;;;23.27;41.41
54248;BME280;40161;39.768;2.722;2023-05-02T15:09:34;101288.53;;;23.20;42.29
54248;BME280;40161;39.768;2.722;2023-05-02T15:12:00;101302.84;;;23.39;41.30
54248;BME280;40161;39.768;2.722;2023-05-02T15:14:27;101301.19;;;23.41;41.41
54248;BME280;40161;39.768;2.722;2023-05-02T15:16:53;101288.16;;;23.35;41.27
54248;BME280;40161;39.768;2.722;2023-05-02T15:19:19;101280.63;;;23.32;40.11
54248;BME280;40161;39.768;2.722;2023-05-02T15:21:47;101292.22;;;23.46;41.75
54248;BME280;40161;39.768;2.722;2023-05-02T15:24:14;101267.50;;;23.29;40.65
54248;BME280;40161;39.768;2.722;2023-05-02T15:26:40;101303.63;;;23.39;41.15
54248;BME280;40161;39.768;2.722;2023-05-02T15:29:05;101250.56;;;23.19;41.04
54248;BME280;40161;39.768;2.722;2023-05-02T15:31:31;101293.34;;;23.49;40.59
54248;BME280;40161;39.768;2.722;2023-05-02T15:33:58;101294.19;;;23.33;40.45
54248;BME280;40161;39.768;2.722;2023-05-02T15:36:27;101299.22;;;23.55;40.38
54248;BME280;40161;39.768;2.722;2023-05-02T15:38:57;101296.34;;;23.42;40.84
54248;BME280;40161;39.768;2.722;2023-05-02T15:41:23;101278.13;;;23.21;40.83
54248;BME280;40161;39.768;2.722;2023-05-02T15:43:51;101286.88;;;23.23;41.07
54248;BME280;40161;39.768;2.722;2023-05-02T15:46:17;101284.84;;;23.24;40.69
54248;BME280;40161;39.768;2.722;2023-05-02T15:48:43;101290.00;;;23.25;40.58
54248;BME280;40161;39.768;2.722;2023-05-02T15:51:09;101285.19;;;23.26;40.54
54248;BME280;40161;39.768;2.722;2023-05-02T15:53:35;101278.81;;;23.25;40.30
54248;BME280;40161;39.768;2.722;2023-05-02T15:56:07;101291.56;;;23.26;40.50
54248;BME280;40161;39.768;2.722;2023-05-02T15:58:33;101272.16;;;23.19;40.51
54248;BME280;40161;39.768;2.722;2023-05-02T16:00:59;101290.25;;;23.31;40.39
54248;BME280;40161;39.768;2.722;2023-05-02T16:03:25;101265.09;;;23.14;40.16
54248;BME280;40161;39.768;2.722;2023-05-02T16:05:51;101291.63;;;23.39;41.00
54248;BME280;40161;39.768;2.722;2023-05-02T16:08:17;101260.19;;;23.18;40.39
54248;BME280;40161;39.768;2.722;2023-05-02T16:10:42;101271.09;;;23.29;40.34
54248;BME280;40161;39.768;2.722;2023-05-02T16:13:08;101275.75;;;23.19;40.58
54248;BME280;40161;39.768;2.722;2023-05-02T16:15:34;101304.34;;;23.27;40.86
54248;BME280;40161;39.768;2.722;2023-05-02T16:17:59;101287.13;;;23.12;40.86
54248;BME280;40161;39.768;2.722;2023-05-02T16:20:25;101304.53;;;23.20;40.51
54248;BME280;40161;39.768;2.722;2023-05-02T16:22:51;101279.28;;;23.07;40.63
54248;BME280;40161;39.768;2.722;2023-05-02T16:25:17;101281.03;;;23.01;41.26
54248;BME280;40161;39.768;2.722;2023-05-02T16:27:43;101275.69;;;23.07;41.64
54248;BME280;40161;39.768;2.722;2023-05-02T16:30:09;101278.31;;;22.97;41.13
54248;BME280;40161;39.768;2.722;2023-05-02T16:32:35;101297.63;;;23.08;41.64
54248;BME280;40161;39.768;2.722;2023-05-02T16:35:04;101297.22;;;23.10;40.97
54248;BME280;40161;39.768;2.722;2023-05-02T16:37:34;101281.47;;;23.00;41.75
54248;BME280;40161;39.768;2.722;2023-05-02T16:40:00;101293.81;;;23.02;41.04
54248;BME280;40161;39.768;2.722;2023-05-02T16:42:25;101282.50;;;22.89;42.01
54248;BME280;40161;39.768;2.722;2023-05-02T16:44:51;101291.88;;;22.99;42.69
54248;BME280;40161;39.768;2.722;2023-05-02T16:47:17;101283.09;;;22.81;45.10
54248;BME280;40161;39.768;2.722;2023-05-02T16:49:43;101291.16;;;22.95;42.07
54248;BME280;40161;39.768;2.722;2023-05-02T16:52:09;101294.91;;;23.05;43.73
54248;BME280;40161;39.768;2.722;2023-05-02T16:54:34;101288.09;;;22.73;45.01
54248;BME280;40161;39.768;2.722;2023-05-02T16:57:00;101299.63;;;22.59;46.68
54248;BME280;40161;39.768;2.722;2023-05-02T16:59:27;101279.69;;;22.40;47.11
54248;BME280;40161;39.768;2.722;2023-05-02T17:01:53;101253.34;;;22.21;45.15
54248;BME280;40161;39.768;2.722;2023-05-02T17:04:18;101296.53;;;22.53;45.12
54248;BME280;40161;39.768;2.722;2023-05-02T17:06:45;101292.19;;;22.52;46.63
54248;BME280;40161;39.768;2.722;2023-05-02T17:09:11;101226.53;;;22.04;43.67
54248;BME280;40161;39.768;2.722;2023-05-02T17:11:38;101301.59;;;22.42;47.06
54248;BME280;40161;39.768;2.722;2023-05-02T17:14:03;101314.09;;;22.37;46.94
54248;BME280;40161;39.768;2.722;2023-05-02T17:16:29;101279.72;;;22.20;46.57
54248;BME280;40161;39.768;2.722;2023-05-02T17:18:55;101282.00;;;22.25;44.02
54248;BME280;40161;39.768;2.722;2023-05-02T17:21:20;101274.25;;;22.13;45.73
54248;BME280;40161;39.768;2.722;2023-05-02T17:23:46;101262.34;;;22.09;46.30
54248;BME280;40161;39.768;2.722;2023-05-02T17:26:11;101301.91;;;22.27;46.66
54248;BME280;40161;39.768;2.722;2023-05-02T17:28:41;101285.06;;;22.11;46.66
54248;BME280;40161;39.768;2.722;2023-05-02T17:31:11;101304.94;;;22.17;47.01
54248;BME280;40161;39.768;2.722;2023-05-02T17:33:37;101289.59;;;22.05;46.64
54248;BME280;40161;39.768;2.722;2023-05-02T17:36:03;101296.25;;;22.11;46.31
54248;BME280;40161;39.768;2.722;2023-05-02T17:38:29;101303.06;;;22.10;45.78
54248;BME280;40161;39.768;2.722;2023-05-02T17:40:54;101312.09;;;22.18;45.27
54248;BME280;40161;39.768;2.722;2023-05-02T17:43:20;101324.78;;;22.22;45.71
54248;BME280;40161;39.768;2.722;2023-05-02T17:45:46;101331.22;;;22.19;44.39
54248;BME280;40161;39.768;2.722;2023-05-02T17:48:11;101342.38;;;22.23;46.35
54248;BME280;40161;39.768;2.722;2023-05-02T17:50:40;101303.72;;;21.98;46.17
54248;BME280;40161;39.768;2.722;2023-05-02T17:53:06;101318.38;;;22.02;46.19
54248;BME280;40161;39.768;2.722;2023-05-02T17:55:35;101322.25;;;22.08;46.88
54248;BME280;40161;39.768;2.722;2023-05-02T17:58:02;101294.41;;;21.65;45.36
54248;BME280;40161;39.768;2.722;2023-05-02T18:00:28;101276.38;;;21.69;47.15
54248;BME280;40161;39.768;2.722;2023-05-02T18:02:56;101338.25;;;21.88;44.53
54248;BME280;40161;39.768;2.722;2023-05-02T18:05:22;101308.06;;;21.59;45.72
54248;BME280;40161;39.768;2.722;2023-05-02T18:07:50;101319.81;;;21.70;45.92
54248;BME280;40161;39.768;2.722;2023-05-02T18:10:15;101321.56;;;21.84;45.68
54248;BME280;40161;39.768;2.722;2023-05-02T18:12:41;101334.56;;;21.71;45.72
54248;BME280;40161;39.768;2.722;2023-05-02T18:15:06;101305.06;;;21.50;46.93
54248;BME280;40161;39.768;2.722;2023-05-02T18:17:33;101320.72;;;21.44;46.91
54248;BME280;40161;39.768;2.722;2023-05-02T18:19:59;101330.72;;;21.65;47.53
54248;BME280;40161;39.768;2.722;2023-05-02T18:22:24;101338.00;;;21.59;47.23
54248;BME280;40161;39.768;2.722;2023-05-02T18:24:50;101323.34;;;21.54;47.24
54248;BME280;40161;39.768;2.722;2023-05-02T18:27:17;101331.13;;;21.63;48.12
54248;BME280;40161;39.768;2.722;2023-05-02T18:29:43;101301.06;;;21.27;47.82
54248;BME280;40161;39.768;2.722;2023-05-02T18:32:08;101337.16;;;21.62;46.11
54248;BME280;40161;39.768;2.722;2023-05-02T18:34:34;101343.03;;;21.44;47.35
54248;BME280;40161;39.768;2.722;2023-05-02T18:37:00;101342.03;;;21.34;47.37
54248;BME280;40161;39.768;2.722;2023-05-02T18:39:29;101373.03;;;21.40;46.33
54248;BME280;40161;39.768;2.722;2023-05-02T18:41:56;101363.59;;;21.30;48.60
54248;BME280;40161;39.768;2.722;2023-05-02T18:44:21;101359.66;;;21.04;48.90
54248;BME280;40161;39.768;2.722;2023-05-02T18:46:47;101366.13;;;20.70;48.88
54248;BME280;40161;39.768;2.722;2023-05-02T18:49:12;101360.16;;;20.72;48.22
54248;BME280;40161;39.768;2.722;2023-05-02T18:51:38;101374.72;;;20.83;48.91
54248;BME280;40161;39.768;2.722;2023-05-02T18:54:03;101365.66;;;20.45;48.29
54248;BME280;40161;39.768;2.722;2023-05-02T18:56:29;101393.13;;;20.12;48.68
54248;BME280;40161;39.768;2.722;2023-05-02T18:58:55;101379.72;;;20.03;49.08
54248;BME280;40161;39.768;2.722;2023-05-02T19:01:22;101390.88;;;20.03;48.74
54248;BME280;40161;39.768;2.722;2023-05-02T19:03:48;101401.88;;;19.76;49.79
54248;BME280;40161;39.768;2.722;2023-05-02T19:06:14;101408.66;;;19.72;50.19
54248;BME280;40161;39.768;2.722;2023-05-02T19:08:44;101420.22;;;19.70;50.41
54248;BME280;40161;39.768;2.722;2023-05-02T19:11:09;101410.75;;;19.64;50.38
54248;BME280;40161;39.768;2.722;2023-05-02T19:13:35;101417.91;;;19.61;51.65
54248;BME280;40161;39.768;2.722;2023-05-02T19:16:01;101400.91;;;19.49;52.11
54248;BME280;40161;39.768;2.722;2023-05-02T19:18:26;101401.59;;;19.60;52.14
54248;BME280;40161;39.768;2.722;2023-05-02T19:20:52;101408.06;;;19.50;52.99
54248;BME280;40161;39.768;2.722;2023-05-02T19:23:17;101386.38;;;19.27;52.87
54248;BME280;40161;39.768;2.722;2023-05-02T19:25:46;101431.16;;;19.91;51.91
54248;BME280;40161;39.768;2.722;2023-05-02T19:28:12;101417.25;;;20.26;54.02
54248;BME280;40161;39.768;2.722;2023-05-02T19:30:40;101396.00;;;20.39;53.86
54248;BME280;40161;39.768;2.722;2023-05-02T19:33:06;101395.75;;;20.26;50.33
54248;BME280;40161;39.768;2.722;2023-05-02T19:35:32;101431.84;;;20.41;49.93
54248;BME280;40161;39.768;2.722;2023-05-02T19:38:00;101434.63;;;20.37;49.54
54248;BME280;40161;39.768;2.722;2023-05-02T19:40:25;101429.00;;;20.10;50.34
54248;BME280;40161;39.768;2.722;2023-05-02T19:42:51;101435.63;;;20.20;50.90
54248;BME280;40161;39.768;2.722;2023-05-02T19:45:16;101420.56;;;20.17;50.70
54248;BME280;40161;39.768;2.722;2023-05-02T19:47:42;101428.38;;;20.29;49.13
54248;BME280;40161;39.768;2.722;2023-05-02T19:50:10;101457.41;;;20.32;49.94
54248;BME280;40161;39.768;2.722;2023-05-02T19:52:36;101455.53;;;19.80;52.30
54248;BME280;40161;39.768;2.722;2023-05-02T19:55:04;101407.09;;;19.71;50.79
54248;BME280;40161;39.768;2.722;2023-05-02T19:57:29;101446.28;;;19.90;51.17
54248;BME280;40161;39.768;2.722;2023-05-02T19:59:55;101402.06;;;19.55;51.65
54248;BME280;40161;39.768;2.722;2023-05-02T20:02:20;101421.03;;;19.71;51.32